createdAt,value
2023-03-26T00:00:43.662Z,0.88
2023-03-26T00:03:14.835Z,0.70
2023-03-26T00:05:41.402Z,0.70
2023-03-26T00:08:11.210Z,0.60
2023-03-26T00:10:40.335Z,0.80
2023-03-26T00:13:07.632Z,0.60
2023-03-26T00:15:35.517Z,0.60
2023-03-26T00:18:02.206Z,0.80
2023-03-26T00:20:32.847Z,0.60
2023-03-26T00:23:02.537Z,0.70
2023-03-26T00:25:28.897Z,0.68
2023-03-26T00:27:55.591Z,0.68
2023-03-26T00:30:22.195Z,0.60
2023-03-26T00:32:48.640Z,0.70
2023-03-26T00:35:20.774Z,0.77
2023-03-26T00:37:47.165Z,0.70
2023-03-26T00:40:13.863Z,0.60
2023-03-26T00:42:40.215Z,0.95
2023-03-26T00:45:07.364Z,0.65
2023-03-26T00:47:34.381Z,0.82
2023-03-26T00:50:01.157Z,0.75
2023-03-26T00:52:28.716Z,0.70
2023-03-26T00:54:57.605Z,0.90
2023-03-26T00:57:35.004Z,0.70
2023-03-26T01:00:15.924Z,0.63
2023-03-26T01:02:45.046Z,0.60
2023-03-26T01:05:36.374Z,0.60
2023-03-26T01:08:19.069Z,0.60
2023-03-26T01:10:50.739Z,0.85
2023-03-26T01:13:22.869Z,0.60
2023-03-26T01:15:51.183Z,0.70
2023-03-26T01:18:20.705Z,0.70
2023-03-26T01:20:49.706Z,0.70
2023-03-26T01:23:23.561Z,0.63
2023-03-26T01:26:01.425Z,0.50
2023-03-26T01:28:32.109Z,0.70
2023-03-26T01:31:21.763Z,0.55
2023-03-26T01:33:57.840Z,0.70
2023-03-26T01:36:50.101Z,0.55
2023-03-26T01:39:28.170Z,0.50
2023-03-26T01:42:02.250Z,0.60
2023-03-26T01:44:36.130Z,0.40
2023-03-26T01:47:03.935Z,0.40
2023-03-26T01:49:31.542Z,0.70
2023-03-26T01:52:00.606Z,0.50
2023-03-26T01:54:31.149Z,0.40
2023-03-26T01:57:10.347Z,0.60
2023-03-26T01:59:58.513Z,0.50
2023-03-26T02:03:01.833Z,0.45
2023-03-26T02:05:41.151Z,0.50
2023-03-26T02:08:23.105Z,0.55
2023-03-26T02:10:55.747Z,0.50
2023-03-26T02:13:22.465Z,0.70
2023-03-26T02:16:00.893Z,0.68
2023-03-26T02:18:39.002Z,0.60
2023-03-26T02:21:21.307Z,0.60
2023-03-26T02:23:58.130Z,0.50
2023-03-26T02:26:25.282Z,0.70
2023-03-26T02:28:52.047Z,1.05
2023-03-26T02:31:19.392Z,0.60
2023-03-26T02:33:47.627Z,0.55
2023-03-26T02:36:14.309Z,0.60
2023-03-26T02:38:41.566Z,0.60
2023-03-26T02:41:07.958Z,0.60
2023-03-26T02:43:34.301Z,0.55
2023-03-26T02:46:00.679Z,0.70
2023-03-26T02:48:27.069Z,0.63
2023-03-26T02:50:56.378Z,0.70
2023-03-26T02:53:23.861Z,0.68
2023-03-26T02:55:51.004Z,0.40
2023-03-26T02:58:17.703Z,0.60
2023-03-26T03:00:45.993Z,0.60
2023-03-26T03:03:13.439Z,0.80
2023-03-26T03:05:42.982Z,0.73
2023-03-26T03:10:37.759Z,0.50
2023-03-26T03:13:07.612Z,0.60
2023-03-26T03:15:34.758Z,0.60
2023-03-26T03:18:01.226Z,0.50
2023-03-26T03:20:30.245Z,0.50
2023-03-26T03:22:59.882Z,0.70
2023-03-26T03:25:26.570Z,0.60
2023-03-26T03:27:53.940Z,0.70
2023-03-26T03:30:20.821Z,0.60
2023-03-26T03:32:47.766Z,0.70
2023-03-26T03:35:14.171Z,0.55
2023-03-26T03:37:40.539Z,0.68
2023-03-26T03:40:08.106Z,0.60
2023-03-26T03:42:34.434Z,0.70
2023-03-26T03:45:01.915Z,0.70
2023-03-26T03:47:28.322Z,0.82
2023-03-26T03:49:54.700Z,0.73
2023-03-26T03:52:21.037Z,0.90
2023-03-26T03:54:47.413Z,0.85
2023-03-26T03:57:15.937Z,1.85
2023-03-26T03:59:48.074Z,0.90
2023-03-26T04:02:21.213Z,0.80
2023-03-26T04:04:50.089Z,0.98
2023-03-26T04:07:16.540Z,0.80
2023-03-26T04:09:42.976Z,0.82
2023-03-26T04:12:09.318Z,0.93
2023-03-26T04:14:35.816Z,0.70
2023-03-26T04:17:02.208Z,0.77
2023-03-26T04:19:28.679Z,1.13
2023-03-26T04:21:55.303Z,0.80
2023-03-26T04:24:24.555Z,0.80
2023-03-26T04:26:50.968Z,0.77
2023-03-26T04:29:21.924Z,0.82
2023-03-26T04:31:50.406Z,0.73
2023-03-26T04:34:24.404Z,0.80
2023-03-26T04:36:54.537Z,0.60
2023-03-26T04:39:29.014Z,0.70
2023-03-26T04:41:56.281Z,0.80
2023-03-26T04:44:22.665Z,0.70
2023-03-26T04:46:50.105Z,0.80
2023-03-26T04:49:16.518Z,0.60
2023-03-26T04:51:44.745Z,0.68
2023-03-26T04:54:13.420Z,0.73
2023-03-26T04:57:01.027Z,0.70
2023-03-26T04:59:34.469Z,0.80
2023-03-26T05:02:06.109Z,0.75
2023-03-26T05:04:36.750Z,0.68
2023-03-26T05:07:03.183Z,0.65
2023-03-26T05:09:29.557Z,0.73
2023-03-26T05:11:57.284Z,0.68
2023-03-26T05:14:24.234Z,0.63
2023-03-26T05:16:53.219Z,0.65
2023-03-26T05:19:19.634Z,0.70
2023-03-26T05:21:45.993Z,0.70
2023-03-26T05:24:12.366Z,0.80
2023-03-26T05:26:38.713Z,0.90
2023-03-26T05:29:05.297Z,0.80
2023-03-26T05:31:32.035Z,0.68
2023-03-26T05:34:00.541Z,0.80
2023-03-26T05:36:28.370Z,0.70
2023-03-26T05:38:54.788Z,0.70
2023-03-26T05:41:21.163Z,0.65
2023-03-26T05:43:48.846Z,0.70
2023-03-26T05:46:15.994Z,0.75
2023-03-26T05:48:42.449Z,0.70
2023-03-26T05:51:08.942Z,0.88
2023-03-26T05:53:35.339Z,0.85
2023-03-26T05:56:01.987Z,0.95
2023-03-26T05:58:31.348Z,0.82
2023-03-26T06:00:58.426Z,0.80
2023-03-26T06:03:25.176Z,0.80
2023-03-26T06:05:51.910Z,0.95
2023-03-26T06:08:19.403Z,0.80
2023-03-26T06:10:45.945Z,1.00
2023-03-26T06:13:13.591Z,0.88
2023-03-26T06:15:39.939Z,0.88
2023-03-26T06:18:06.350Z,0.73
2023-03-26T06:20:32.904Z,0.80
2023-03-26T06:22:59.253Z,0.90
2023-03-26T06:25:25.605Z,0.93
2023-03-26T06:27:51.961Z,0.80
2023-03-26T06:30:18.293Z,0.95
2023-03-26T06:32:44.653Z,0.80
2023-03-26T06:35:11.438Z,1.00
2023-03-26T06:37:37.882Z,0.88
2023-03-26T06:40:05.125Z,0.93
2023-03-26T06:43:06.722Z,0.70
2023-03-26T06:45:18.187Z,1.10
2023-03-26T06:47:44.577Z,0.90
2023-03-26T06:50:11.841Z,0.90
2023-03-26T06:52:38.449Z,0.82
2023-03-26T06:55:06.509Z,1.00
2023-03-26T06:57:32.883Z,0.90
2023-03-26T06:59:59.217Z,0.70
2023-03-26T07:02:26.443Z,1.15
2023-03-26T07:04:53.464Z,0.70
2023-03-26T07:07:21.705Z,1.00
2023-03-26T07:09:48.298Z,1.77
2023-03-26T07:12:15.236Z,1.83
2023-03-26T07:14:41.622Z,1.42
2023-03-26T07:17:08.233Z,1.25
2023-03-26T07:19:34.611Z,1.58
2023-03-26T07:22:01.590Z,1.38
2023-03-26T07:24:28.334Z,1.40
2023-03-26T07:26:58.670Z,1.25
2023-03-26T07:29:35.505Z,1.10
2023-03-26T07:32:11.800Z,1.00
2023-03-26T07:35:00.744Z,1.02
2023-03-26T07:37:56.084Z,2.08
2023-03-26T07:40:57.376Z,2.22
2023-03-26T07:43:45.425Z,2.83
2023-03-26T07:48:44.916Z,1.30
2023-03-26T07:51:11.943Z,1.20
2023-03-26T07:53:38.473Z,0.90
2023-03-26T07:56:14.465Z,0.90
2023-03-26T07:59:20.676Z,0.80
2023-03-26T08:02:24.297Z,1.05
2023-03-26T08:04:55.933Z,0.93
2023-03-26T08:07:47.115Z,1.13
2023-03-26T08:10:27.171Z,1.23
2023-03-26T08:13:19.617Z,1.00
2023-03-26T08:15:58.027Z,1.00
2023-03-26T08:18:46.756Z,1.00
2023-03-26T08:21:20.541Z,0.95
2023-03-26T08:24:13.269Z,1.10
2023-03-26T08:27:13.411Z,1.00
2023-03-26T08:29:51.600Z,1.02
2023-03-26T08:32:20.091Z,1.20
2023-03-26T08:34:46.717Z,1.00
2023-03-26T08:37:13.354Z,1.10
2023-03-26T08:39:41.929Z,2.08
2023-03-26T08:42:30.572Z,1.17
2023-03-26T08:45:28.947Z,1.15
2023-03-26T08:48:26.640Z,1.17
2023-03-26T08:51:18.728Z,1.10
2023-03-26T08:54:27.190Z,0.93
2023-03-26T08:57:39.978Z,1.17
2023-03-26T09:00:28.135Z,1.05
2023-03-26T09:03:03.459Z,1.08
2023-03-26T09:06:13.177Z,0.90
2023-03-26T09:09:18.772Z,1.10
2023-03-26T09:12:25.457Z,1.10
2023-03-26T09:15:21.314Z,0.98
2023-03-26T09:18:23.214Z,1.00
2023-03-26T09:21:27.322Z,1.10
2023-03-26T09:24:31.334Z,1.20
2023-03-26T09:27:16.383Z,1.10
2023-03-26T09:30:20.539Z,1.23
2023-03-26T09:33:13.352Z,1.08
2023-03-26T09:36:10.386Z,0.93
2023-03-26T09:39:09.130Z,1.20
2023-03-26T09:42:03.875Z,2.60
2023-03-26T09:45:01.308Z,2.72
2023-03-26T09:47:30.570Z,1.20
2023-03-26T09:50:21.633Z,1.30
2023-03-26T09:53:03.676Z,1.20
2023-03-26T09:55:54.325Z,1.15
2023-03-26T09:58:29.598Z,1.10
2023-03-26T10:01:20.640Z,1.20
2023-03-26T10:04:03.619Z,0.80
2023-03-26T10:06:56.623Z,0.88
2023-03-26T10:09:38.888Z,0.80
2023-03-26T10:12:24.344Z,1.00
2023-03-26T10:15:16.652Z,0.90
2023-03-26T10:17:51.998Z,1.02
2023-03-26T10:20:27.685Z,1.33
2023-03-26T10:23:15.863Z,1.10
2023-03-26T10:26:19.678Z,0.82
2023-03-26T10:29:04.534Z,1.00
2023-03-26T10:31:51.808Z,1.10
2023-03-26T10:34:49.543Z,1.08
2023-03-26T10:37:29.885Z,1.10
2023-03-26T10:40:26.966Z,1.13
2023-03-26T10:43:19.744Z,0.90
2023-03-26T10:45:54.345Z,1.10
2023-03-26T10:48:42.992Z,1.05
2023-03-26T10:51:21.019Z,1.02
2023-03-26T10:54:12.391Z,1.10
2023-03-26T10:56:46.514Z,0.90
2023-03-26T10:59:14.454Z,1.00
2023-03-26T11:02:04.461Z,0.90
2023-03-26T11:04:55.957Z,0.90
2023-03-26T11:07:36.250Z,0.80
2023-03-26T11:10:11.558Z,0.80
2023-03-26T11:13:00.656Z,0.88
2023-03-26T11:15:34.037Z,0.60
2023-03-26T11:18:15.925Z,0.73
2023-03-26T11:21:18.124Z,0.70
2023-03-26T11:24:17.942Z,0.80
2023-03-26T11:26:52.859Z,0.57
2023-03-26T11:29:40.936Z,0.70
2023-03-26T11:32:22.786Z,0.68
2023-03-26T11:35:15.496Z,0.75
2023-03-26T11:37:46.340Z,0.80
2023-03-26T11:40:34.800Z,0.80
2023-03-26T11:43:04.795Z,0.60
2023-03-26T11:45:37.254Z,0.80
2023-03-26T11:48:08.093Z,0.70
2023-03-26T11:50:38.640Z,0.70
2023-03-26T11:53:14.597Z,0.70
2023-03-26T11:55:47.450Z,0.70
2023-03-26T11:58:30.934Z,0.60
2023-03-26T12:00:57.499Z,0.50
2023-03-26T12:03:24.117Z,0.70
2023-03-26T12:05:57.745Z,0.50
2023-03-26T12:08:32.850Z,0.70
2023-03-26T12:11:05.706Z,1.33
2023-03-26T12:13:50.568Z,0.60
2023-03-26T12:16:19.786Z,0.70
2023-03-26T12:21:19.257Z,0.73
2023-03-26T12:23:58.442Z,0.50
2023-03-26T12:26:48.791Z,0.80
2023-03-26T12:29:17.704Z,0.63
2023-03-26T12:32:04.613Z,0.60
2023-03-26T12:34:35.242Z,0.80
2023-03-26T12:37:03.573Z,0.80
2023-03-26T12:40:09.974Z,0.75
2023-03-26T12:44:50.583Z,0.80
2023-03-26T12:45:15.690Z,0.80
2023-03-26T12:47:58.828Z,0.60
2023-03-26T12:50:41.385Z,0.60
2023-03-26T12:53:21.484Z,0.65
2023-03-26T12:56:00.407Z,1.00
2023-03-26T12:58:58.150Z,0.80
2023-03-26T13:01:38.769Z,0.90
2023-03-26T13:04:27.335Z,0.77
2023-03-26T13:07:25.028Z,0.80
2023-03-26T13:10:30.428Z,0.90
2023-03-26T13:13:16.807Z,4.38
2023-03-26T13:15:49.943Z,3.45
2023-03-26T13:18:48.161Z,1.00
2023-03-26T13:21:25.957Z,0.85
2023-03-26T13:24:21.229Z,0.80
2023-03-26T13:27:26.337Z,0.95
2023-03-26T13:30:14.582Z,0.82
2023-03-26T13:32:58.729Z,0.80
2023-03-26T13:35:48.310Z,0.80
2023-03-26T13:38:23.782Z,0.90
2023-03-26T13:41:20.938Z,1.10
2023-03-26T13:43:58.169Z,1.00
2023-03-26T13:46:24.506Z,0.90
2023-03-26T13:48:57.695Z,0.80
2023-03-26T13:51:31.850Z,0.82
2023-03-26T13:54:05.766Z,1.35
2023-03-26T13:56:40.863Z,1.10
2023-03-26T13:59:19.093Z,0.90
2023-03-26T14:01:56.577Z,0.70
2023-03-26T14:04:33.646Z,5.28
2023-03-26T14:07:11.999Z,1.48
2023-03-26T14:09:48.870Z,0.50
2023-03-26T14:12:40.391Z,0.70
2023-03-26T14:15:15.380Z,0.65
2023-03-26T14:17:48.458Z,0.70
2023-03-26T14:20:17.496Z,1.00
2023-03-26T14:23:08.004Z,0.80
2023-03-26T14:25:53.089Z,1.00
2023-03-26T14:28:47.000Z,0.80
2023-03-26T14:31:32.224Z,0.70
2023-03-26T14:34:13.865Z,0.70
2023-03-26T14:36:53.015Z,0.88
2023-03-26T14:39:37.097Z,0.80
2023-03-26T14:42:17.757Z,0.70
2023-03-26T14:45:14.657Z,0.85
2023-03-26T14:47:59.354Z,1.00
2023-03-26T14:50:42.496Z,1.10
2023-03-26T14:53:33.351Z,0.85
2023-03-26T14:56:09.487Z,0.90
2023-03-26T14:59:22.928Z,0.85
2023-03-26T15:02:37.461Z,0.70
2023-03-26T15:05:15.857Z,0.60
2023-03-26T15:08:06.898Z,0.70
2023-03-26T15:10:54.569Z,0.80
2023-03-26T15:13:46.464Z,0.80
2023-03-26T15:16:45.502Z,0.80
2023-03-26T15:19:59.721Z,0.90
2023-03-26T15:22:52.610Z,0.80
2023-03-26T15:25:45.286Z,2.45
2023-03-26T15:28:23.559Z,0.70
2023-03-26T15:31:09.817Z,0.80
2023-03-26T15:34:13.944Z,0.60
2023-03-26T15:37:00.269Z,0.75
2023-03-26T15:39:59.652Z,0.70
2023-03-26T15:42:45.616Z,0.68
2023-03-26T15:45:33.510Z,0.60
2023-03-26T15:48:12.492Z,0.60
2023-03-26T15:50:57.910Z,0.77
2023-03-26T15:53:36.561Z,0.70
2023-03-26T15:56:38.298Z,0.98
2023-03-26T15:59:14.380Z,0.90
2023-03-26T16:02:09.985Z,0.95
2023-03-26T16:04:51.633Z,1.02
2023-03-26T16:07:38.900Z,0.90
2023-03-26T16:10:17.163Z,0.93
2023-03-26T16:13:11.831Z,1.80
2023-03-26T16:15:38.524Z,5.47
2023-03-26T16:18:19.167Z,0.90
2023-03-26T16:20:57.120Z,1.20
2023-03-26T16:23:53.686Z,0.90
2023-03-26T16:26:35.498Z,1.02
2023-03-26T16:31:37.857Z,1.17
2023-03-26T16:34:04.909Z,1.38
2023-03-26T16:36:36.239Z,1.40
2023-03-26T16:39:05.514Z,1.27
2023-03-26T16:41:51.213Z,1.40
2023-03-26T16:44:28.981Z,1.33
2023-03-26T16:47:15.363Z,1.40
2023-03-26T16:50:10.587Z,1.60
2023-03-26T16:53:15.680Z,1.23
2023-03-26T16:56:02.600Z,1.33
2023-03-26T16:58:37.807Z,1.40
2023-03-26T17:01:17.523Z,1.90
2023-03-26T17:03:56.655Z,1.65
2023-03-26T17:07:09.001Z,1.75
2023-03-26T17:10:12.897Z,3.35
2023-03-26T17:12:59.639Z,13.80
2023-03-26T17:15:56.010Z,7.82
2023-03-26T17:18:31.384Z,4.57
2023-03-26T17:21:04.897Z,3.17
2023-03-26T17:23:53.148Z,2.17
2023-03-26T17:26:42.200Z,1.85
2023-03-26T17:29:18.716Z,1.70
2023-03-26T17:32:03.293Z,2.20
2023-03-26T17:34:46.610Z,1.58
2023-03-26T17:37:18.898Z,1.60
2023-03-26T17:39:48.088Z,2.25
2023-03-26T17:42:35.574Z,2.40
2023-03-26T17:45:07.868Z,3.78
2023-03-26T17:47:52.697Z,2.22
2023-03-26T17:50:30.009Z,1.70
2023-03-26T17:53:07.433Z,1.95
2023-03-26T17:55:37.837Z,1.80
2023-03-26T17:58:07.223Z,1.52
2023-03-26T18:00:42.831Z,1.50
2023-03-26T18:03:20.013Z,1.60
2023-03-26T18:05:48.788Z,1.58
2023-03-26T18:08:39.159Z,1.50
2023-03-26T18:11:19.555Z,4.63
2023-03-26T18:13:51.880Z,19.85
2023-03-26T18:16:24.227Z,34.95
2023-03-26T18:19:19.142Z,2.70
2023-03-26T18:22:03.224Z,1.80
2023-03-26T18:24:38.007Z,1.75
2023-03-26T18:27:12.478Z,1.92
2023-03-26T18:29:44.301Z,1.85
2023-03-26T18:32:10.632Z,2.17
2023-03-26T18:34:39.851Z,2.60
2023-03-26T18:37:24.333Z,2.30
2023-03-26T18:40:07.396Z,2.10
2023-03-26T18:42:33.946Z,2.08
2023-03-26T18:45:07.861Z,2.00
2023-03-26T18:47:36.541Z,1.80
2023-03-26T18:50:03.115Z,1.60
2023-03-26T18:52:31.945Z,1.60
2023-03-26T18:54:59.453Z,7.82
2023-03-26T18:57:28.720Z,17.90
2023-03-26T19:00:08.783Z,11.50
2023-03-26T19:02:35.819Z,61.83
2023-03-26T19:05:02.877Z,57.08
2023-03-26T19:07:29.722Z,17.05
2023-03-26T19:09:56.700Z,6.75
2023-03-26T19:12:29.155Z,5.50
2023-03-26T19:15:09.854Z,7.60
2023-03-26T19:17:53.304Z,3.70
2023-03-26T19:20:27.154Z,4.95
2023-03-26T19:22:55.199Z,10.20
2023-03-26T19:25:40.698Z,9.10
2023-03-26T19:28:17.040Z,8.32
2023-03-26T19:30:43.816Z,6.80
2023-03-26T19:33:18.855Z,5.20
2023-03-26T19:35:51.706Z,3.83
2023-03-26T19:38:41.610Z,5.03
2023-03-26T19:41:23.344Z,4.40
2023-03-26T19:43:51.606Z,4.15
2023-03-26T19:46:21.701Z,4.00
2023-03-26T19:48:52.553Z,4.10
2023-03-26T19:51:21.227Z,11.52
2023-03-26T19:53:55.681Z,5.85
2023-03-26T19:56:22.774Z,5.40
2023-03-26T19:58:50.132Z,5.90
2023-03-26T20:01:18.930Z,4.85
2023-03-26T20:03:48.594Z,4.25
2023-03-26T20:06:22.164Z,3.03
2023-03-26T20:08:53.056Z,2.55
2023-03-26T20:11:21.354Z,6.47
2023-03-26T20:13:48.247Z,7.47
2023-03-26T20:16:27.879Z,6.90
2023-03-26T20:19:02.357Z,3.33
2023-03-26T20:21:29.977Z,1.60
2023-03-26T20:23:56.313Z,1.13
2023-03-26T20:26:24.055Z,3.25
2023-03-26T20:28:53.502Z,1.48
2023-03-26T20:31:23.160Z,1.48
2023-03-26T20:36:33.201Z,1.88
2023-03-26T20:39:01.206Z,1.42
2023-03-26T20:41:27.829Z,1.50
2023-03-26T20:43:54.266Z,1.23
2023-03-26T20:46:31.065Z,1.27
2023-03-26T20:48:59.350Z,1.20
2023-03-26T20:51:28.193Z,1.00
2023-03-26T20:53:55.437Z,1.15
2023-03-26T20:56:21.972Z,0.80
2023-03-26T20:58:52.696Z,1.00
2023-03-26T21:01:27.786Z,0.90
2023-03-26T21:03:54.307Z,0.52
2023-03-26T21:06:20.644Z,0.80
2023-03-26T21:08:47.323Z,0.88
2023-03-26T21:11:37.017Z,0.98
2023-03-26T21:14:09.383Z,1.00
2023-03-26T21:16:36.307Z,1.10
2023-03-26T21:19:03.032Z,1.40
2023-03-26T21:21:46.113Z,1.70
2023-03-26T21:24:23.845Z,1.40
2023-03-26T21:27:09.610Z,1.80
2023-03-26T21:29:36.689Z,2.20
2023-03-26T21:32:03.282Z,1.90
2023-03-26T21:34:32.821Z,1.98
2023-03-26T21:39:27.865Z,1.60
2023-03-26T21:42:05.248Z,1.20
2023-03-26T21:44:32.922Z,1.65
2023-03-26T21:46:59.510Z,1.55
2023-03-26T21:49:26.147Z,1.17
2023-03-26T21:51:52.764Z,1.27
2023-03-26T21:54:25.608Z,1.33
2023-03-26T21:57:26.850Z,1.20
2023-03-26T22:00:02.414Z,1.17
2023-03-26T22:02:54.572Z,1.15
2023-03-26T22:05:45.974Z,1.40
2023-03-26T22:08:33.406Z,1.48
2023-03-26T22:10:59.910Z,1.50
2023-03-26T22:13:27.144Z,1.40
2023-03-26T22:15:53.696Z,1.02
2023-03-26T22:18:25.769Z,0.90
2023-03-26T22:20:52.934Z,1.10
2023-03-26T22:23:19.794Z,1.00
2023-03-26T22:25:46.370Z,0.80
2023-03-26T22:28:13.727Z,0.60
2023-03-26T22:30:40.125Z,0.90
2023-03-26T22:33:10.862Z,0.73
2023-03-26T22:35:38.166Z,0.60
2023-03-26T22:38:05.039Z,0.80
2023-03-26T22:40:31.835Z,0.73
2023-03-26T22:42:58.274Z,1.10
2023-03-26T22:45:24.642Z,1.25
2023-03-26T22:47:51.076Z,0.90
2023-03-26T22:50:17.629Z,1.20
2023-03-26T22:52:44.035Z,1.30
2023-03-26T22:55:11.563Z,1.50
2023-03-26T22:57:38.651Z,1.40
2023-03-26T23:00:15.526Z,1.13
2023-03-26T23:02:44.944Z,1.58
2023-03-26T23:05:13.247Z,1.60
2023-03-26T23:07:40.187Z,1.58
2023-03-26T23:10:07.471Z,1.90
2023-03-26T23:12:33.836Z,1.70
2023-03-26T23:15:04.931Z,1.90
2023-03-26T23:17:35.591Z,1.65
2023-03-26T23:20:06.122Z,1.60
2023-03-26T23:22:32.510Z,1.52
2023-03-26T23:24:58.833Z,2.80
2023-03-26T23:27:25.328Z,3.20
2023-03-26T23:29:51.689Z,3.20
2023-03-26T23:32:23.476Z,3.63
2023-03-26T23:34:51.757Z,3.70
2023-03-26T23:37:22.902Z,3.75
2023-03-26T23:39:50.489Z,3.75
2023-03-26T23:42:17.129Z,4.03
2023-03-26T23:44:56.757Z,4.32
2023-03-26T23:47:23.181Z,4.30
2023-03-26T23:49:49.738Z,5.10
2023-03-26T23:52:16.150Z,4.50
2023-03-26T23:54:42.562Z,4.70
2023-03-26T23:57:09.014Z,4.35
2023-03-26T23:59:35.578Z,4.20
